createdAt,value
2023-05-20T00:00:31.487Z,456.00
2023-05-20T00:01:31.471Z,456.00
2023-05-20T00:02:31.558Z,455.00
2023-05-20T00:03:31.677Z,452.00
2023-05-20T00:04:31.480Z,451.00
2023-05-20T00:05:31.463Z,452.00
2023-05-20T00:06:31.428Z,450.00
2023-05-20T00:07:31.435Z,452.00
2023-05-20T00:08:31.425Z,452.00
2023-05-20T00:09:31.419Z,451.00
2023-05-20T00:10:31.421Z,451.00
2023-05-20T00:11:31.399Z,453.00
2023-05-20T00:12:31.403Z,455.00
2023-05-20T00:13:31.392Z,456.00
2023-05-20T00:14:31.364Z,457.00
2023-05-20T00:15:31.374Z,459.00
2023-05-20T00:16:31.440Z,459.00
2023-05-20T00:17:31.412Z,459.00
2023-05-20T00:18:31.803Z,457.00
2023-05-20T00:19:31.378Z,456.00
2023-05-20T00:20:31.325Z,455.00
2023-05-20T00:21:31.320Z,452.00
2023-05-20T00:22:31.308Z,451.00
2023-05-20T00:23:31.330Z,453.00
2023-05-20T00:24:31.319Z,453.00
2023-05-20T00:25:31.334Z,451.00
2023-05-20T00:26:31.280Z,449.00
2023-05-20T00:27:31.287Z,449.00
2023-05-20T00:28:31.290Z,449.00
2023-05-20T00:29:31.275Z,449.00
2023-05-20T00:30:31.253Z,450.00
2023-05-20T00:31:31.295Z,451.00
2023-05-20T00:32:31.292Z,452.00
2023-05-20T00:33:31.243Z,453.00
2023-05-20T00:34:31.281Z,451.00
2023-05-20T00:35:31.241Z,452.00
2023-05-20T00:36:31.219Z,452.00
2023-05-20T00:37:31.218Z,452.00
2023-05-20T00:38:31.227Z,450.00
2023-05-20T00:39:31.193Z,449.00
2023-05-20T00:40:31.190Z,447.00
2023-05-20T00:41:31.196Z,446.00
2023-05-20T00:42:31.185Z,445.00
2023-05-20T00:43:31.180Z,445.00
2023-05-20T00:44:31.168Z,444.00
2023-05-20T00:45:31.214Z,444.00
2023-05-20T00:46:31.240Z,446.00
2023-05-20T00:47:31.189Z,446.00
2023-05-20T00:48:31.125Z,447.00
2023-05-20T00:49:31.137Z,449.00
2023-05-20T00:50:31.113Z,450.00
2023-05-20T00:51:31.139Z,451.00
2023-05-20T00:52:31.108Z,451.00
2023-05-20T00:53:31.097Z,453.00
2023-05-20T00:54:31.101Z,453.00
2023-05-20T00:55:31.146Z,451.00
2023-05-20T00:56:31.068Z,453.00
2023-05-20T00:57:31.074Z,454.00
2023-05-20T00:58:31.078Z,456.00
2023-05-20T00:59:31.049Z,457.00
2023-05-20T01:00:31.044Z,456.00
2023-05-20T01:01:31.079Z,457.00
2023-05-20T01:02:31.061Z,457.00
2023-05-20T01:03:31.102Z,457.00
2023-05-20T01:04:31.010Z,457.00
2023-05-20T01:05:31.036Z,455.00
2023-05-20T01:06:31.012Z,456.00
2023-05-20T01:07:30.993Z,456.00
2023-05-20T01:08:30.983Z,456.00
2023-05-20T01:09:30.961Z,456.00
2023-05-20T01:10:30.986Z,457.00
2023-05-20T01:11:30.959Z,457.00
2023-05-20T01:12:30.977Z,456.00
2023-05-20T01:13:30.958Z,456.00
2023-05-20T01:14:30.923Z,455.00
2023-05-20T01:15:30.966Z,454.00
2023-05-20T01:16:31.012Z,457.00
2023-05-20T01:17:30.957Z,455.00
2023-05-20T01:18:30.904Z,455.00
2023-05-20T01:19:30.904Z,458.00
2023-05-20T01:20:30.901Z,457.00
2023-05-20T01:21:30.881Z,457.00
2023-05-20T01:22:30.903Z,454.00
2023-05-20T01:23:30.901Z,453.00
2023-05-20T01:24:30.870Z,453.00
2023-05-20T01:25:30.882Z,453.00
2023-05-20T01:26:30.844Z,453.00
2023-05-20T01:27:30.846Z,453.00
2023-05-20T01:28:30.858Z,453.00
2023-05-20T01:29:30.820Z,452.00
2023-05-20T01:30:30.817Z,453.00
2023-05-20T01:31:30.902Z,451.00
2023-05-20T01:32:30.883Z,451.00
2023-05-20T01:33:30.843Z,452.00
2023-05-20T01:34:30.806Z,451.00
2023-05-20T01:35:30.796Z,449.00
2023-05-20T01:36:30.779Z,451.00
2023-05-20T01:37:30.770Z,452.00
2023-05-20T01:38:30.785Z,452.00
2023-05-20T01:39:30.757Z,452.00
2023-05-20T01:40:30.764Z,453.00
2023-05-20T01:41:30.746Z,454.00
2023-05-20T01:42:30.764Z,454.00
2023-05-20T01:43:30.797Z,450.00
2023-05-20T01:44:30.795Z,450.00
2023-05-20T01:45:30.829Z,450.00
2023-05-20T01:46:30.867Z,451.00
2023-05-20T01:47:30.865Z,450.00
2023-05-20T01:48:30.869Z,450.00
2023-05-20T01:49:30.893Z,450.00
2023-05-20T01:50:30.870Z,447.00
2023-05-20T01:51:30.897Z,449.00
2023-05-20T01:52:30.882Z,452.00
2023-05-20T01:53:30.895Z,451.00
2023-05-20T01:54:30.918Z,452.00
2023-05-20T01:55:30.896Z,453.00
2023-05-20T01:56:30.928Z,454.00
2023-05-20T01:57:30.941Z,452.00
2023-05-20T01:58:30.918Z,451.00
2023-05-20T01:59:30.924Z,451.00
2023-05-20T02:00:30.986Z,453.00
2023-05-20T02:01:30.982Z,455.00
2023-05-20T02:02:30.983Z,458.00
2023-05-20T02:03:30.958Z,460.00
2023-05-20T02:04:30.960Z,460.00
2023-05-20T02:05:30.986Z,461.00
2023-05-20T02:06:30.964Z,463.00
2023-05-20T02:07:30.971Z,462.00
2023-05-20T02:08:30.988Z,461.00
2023-05-20T02:09:31.023Z,459.00
2023-05-20T02:10:31.006Z,458.00
2023-05-20T02:11:31.006Z,458.00
2023-05-20T02:12:31.010Z,459.00
2023-05-20T02:13:31.012Z,459.00
2023-05-20T02:14:31.028Z,457.00
2023-05-20T02:15:31.054Z,457.00
2023-05-20T02:16:31.140Z,458.00
2023-05-20T02:17:31.098Z,457.00
2023-05-20T02:18:31.068Z,455.00
2023-05-20T02:19:31.132Z,454.00
2023-05-20T02:20:31.086Z,455.00
2023-05-20T02:21:31.087Z,453.00
2023-05-20T02:22:31.122Z,455.00
2023-05-20T02:23:31.135Z,456.00
2023-05-20T02:24:31.137Z,454.00
2023-05-20T02:25:31.177Z,454.00
2023-05-20T02:26:31.124Z,451.00
2023-05-20T02:27:31.145Z,452.00
2023-05-20T02:28:31.161Z,450.00
2023-05-20T02:29:31.162Z,450.00
2023-05-20T02:30:31.172Z,450.00
2023-05-20T02:31:31.182Z,452.00
2023-05-20T02:32:31.218Z,452.00
2023-05-20T02:33:31.225Z,454.00
2023-05-20T02:34:31.454Z,454.00
2023-05-20T02:35:31.298Z,456.00
2023-05-20T02:36:31.227Z,454.00
2023-05-20T02:37:31.238Z,454.00
2023-05-20T02:38:31.246Z,453.00
2023-05-20T02:39:31.256Z,452.00
2023-05-20T02:40:31.258Z,451.00
2023-05-20T02:41:31.271Z,451.00
2023-05-20T02:42:31.281Z,452.00
2023-05-20T02:43:31.311Z,454.00
2023-05-20T02:44:31.319Z,457.00
2023-05-20T02:45:31.308Z,458.00
2023-05-20T02:46:31.443Z,459.00
2023-05-20T02:47:31.346Z,460.00
2023-05-20T02:48:31.350Z,461.00
2023-05-20T02:49:31.343Z,463.00
2023-05-20T02:50:31.325Z,462.00
2023-05-20T02:51:31.344Z,459.00
2023-05-20T02:52:31.349Z,456.00
2023-05-20T02:53:31.348Z,454.00
2023-05-20T02:54:31.361Z,457.00
2023-05-20T02:55:31.527Z,457.00
2023-05-20T02:56:31.399Z,456.00
2023-05-20T02:57:31.400Z,455.00
2023-05-20T02:58:31.403Z,453.00
2023-05-20T02:59:31.404Z,452.00
2023-05-20T03:00:31.407Z,453.00
2023-05-20T03:01:31.484Z,454.00
2023-05-20T03:02:31.466Z,453.00
2023-05-20T03:03:31.458Z,454.00
2023-05-20T03:04:31.547Z,451.00
2023-05-20T03:05:31.494Z,451.00
2023-05-20T03:06:31.465Z,448.00
2023-05-20T03:07:31.475Z,447.00
2023-05-20T03:08:31.480Z,449.00
2023-05-20T03:09:31.482Z,449.00
2023-05-20T03:10:31.496Z,451.00
2023-05-20T03:11:31.509Z,452.00
2023-05-20T03:12:31.535Z,451.00
2023-05-20T03:13:31.545Z,453.00
2023-05-20T03:14:31.530Z,450.00
2023-05-20T03:15:31.532Z,450.00
2023-05-20T03:16:31.621Z,449.00
2023-05-20T03:17:31.607Z,448.00
2023-05-20T03:18:31.586Z,445.00
2023-05-20T03:19:31.606Z,444.00
2023-05-20T03:20:31.595Z,442.00
2023-05-20T03:21:31.597Z,440.00
2023-05-20T03:22:31.608Z,439.00
2023-05-20T03:23:31.629Z,438.00
2023-05-20T03:24:31.627Z,441.00
2023-05-20T03:25:31.870Z,442.00
2023-05-20T03:26:31.642Z,444.00
2023-05-20T03:27:31.675Z,445.00
2023-05-20T03:28:31.674Z,443.00
2023-05-20T03:29:31.676Z,447.00
2023-05-20T03:30:31.675Z,447.00
2023-05-20T03:31:31.737Z,450.00
2023-05-20T03:32:31.709Z,451.00
2023-05-20T03:33:31.708Z,452.00
2023-05-20T03:34:31.726Z,450.00
2023-05-20T03:35:31.882Z,449.00
2023-05-20T03:36:31.730Z,448.00
2023-05-20T03:37:31.735Z,449.00
2023-05-20T03:38:31.763Z,451.00
2023-05-20T03:39:31.771Z,453.00
2023-05-20T03:40:31.829Z,452.00
2023-05-20T03:41:31.774Z,453.00
2023-05-20T03:42:31.812Z,452.00
2023-05-20T03:43:31.804Z,452.00
2023-05-20T03:44:31.842Z,450.00
2023-05-20T03:45:31.814Z,447.00
2023-05-20T03:46:31.874Z,448.00
2023-05-20T03:47:32.004Z,447.00
2023-05-20T03:48:31.953Z,449.00
2023-05-20T03:49:31.873Z,447.00
2023-05-20T03:50:31.860Z,447.00
2023-05-20T03:51:31.881Z,447.00
2023-05-20T03:52:31.875Z,448.00
2023-05-20T03:53:32.374Z,451.00
2023-05-20T03:54:31.917Z,453.00
2023-05-20T03:55:32.028Z,456.00
2023-05-20T03:56:31.920Z,454.00
2023-05-20T03:57:31.938Z,454.00
2023-05-20T03:58:31.945Z,452.00
2023-05-20T03:59:31.945Z,453.00
2023-05-20T04:00:32.001Z,455.00
2023-05-20T04:01:31.960Z,454.00
2023-05-20T04:02:32.079Z,452.00
2023-05-20T04:03:32.201Z,451.00
2023-05-20T04:04:32.063Z,452.00
2023-05-20T04:05:32.166Z,455.00
2023-05-20T04:06:32.055Z,454.00
2023-05-20T04:07:32.036Z,456.00
2023-05-20T04:08:32.052Z,455.00
2023-05-20T04:09:32.082Z,452.00
2023-05-20T04:10:32.080Z,453.00
2023-05-20T04:11:32.092Z,455.00
2023-05-20T04:12:32.095Z,455.00
2023-05-20T04:13:32.111Z,455.00
2023-05-20T04:14:33.763Z,454.00
2023-05-20T04:15:32.262Z,451.00
2023-05-20T04:16:32.200Z,448.00
2023-05-20T04:17:32.210Z,445.00
2023-05-20T04:18:32.164Z,447.00
2023-05-20T04:19:32.166Z,447.00
2023-05-20T04:20:32.188Z,447.00
2023-05-20T04:21:32.224Z,447.00
2023-05-20T04:22:32.216Z,448.00
2023-05-20T04:23:32.218Z,448.00
2023-05-20T04:24:32.244Z,447.00
2023-05-20T04:25:32.250Z,449.00
2023-05-20T04:26:32.255Z,451.00
2023-05-20T04:27:32.281Z,450.00
2023-05-20T04:28:32.280Z,448.00
2023-05-20T04:29:32.317Z,449.00
2023-05-20T04:30:32.304Z,450.00
2023-05-20T04:31:32.347Z,450.00
2023-05-20T04:32:32.372Z,448.00
2023-05-20T04:33:32.350Z,448.00
2023-05-20T04:34:32.372Z,447.00
2023-05-20T04:35:32.539Z,448.00
2023-05-20T04:36:32.401Z,451.00
2023-05-20T04:37:32.405Z,451.00
2023-05-20T04:38:32.491Z,454.00
2023-05-20T04:39:32.438Z,455.00
2023-05-20T04:40:32.475Z,456.00
2023-05-20T04:41:32.495Z,455.00
2023-05-20T04:42:32.477Z,452.00
2023-05-20T04:43:32.497Z,449.00
2023-05-20T04:44:32.508Z,449.00
2023-05-20T04:45:32.773Z,449.00
2023-05-20T04:46:32.566Z,447.00
2023-05-20T04:47:32.634Z,447.00
2023-05-20T04:48:32.568Z,448.00
2023-05-20T04:49:32.571Z,450.00
2023-05-20T04:50:32.605Z,452.00
2023-05-20T04:51:32.602Z,451.00
2023-05-20T04:52:32.608Z,450.00
2023-05-20T04:53:32.633Z,453.00
2023-05-20T04:54:32.651Z,451.00
2023-05-20T04:55:32.851Z,453.00
2023-05-20T04:56:32.661Z,454.00
2023-05-20T04:57:32.669Z,455.00
2023-05-20T04:58:32.704Z,456.00
2023-05-20T04:59:32.698Z,454.00
2023-05-20T05:00:32.705Z,453.00
2023-05-20T05:01:32.779Z,453.00
2023-05-20T05:02:32.727Z,456.00
2023-05-20T05:03:33.899Z,459.00
2023-05-20T05:04:32.770Z,459.00
2023-05-20T05:05:32.950Z,458.00
2023-05-20T05:06:32.713Z,457.00
2023-05-20T05:07:32.737Z,458.00
2023-05-20T05:08:32.722Z,461.00
2023-05-20T05:09:34.738Z,463.00
2023-05-20T05:10:32.731Z,460.00
2023-05-20T05:11:32.685Z,462.00
2023-05-20T05:12:32.666Z,463.00
2023-05-20T05:13:32.689Z,461.00
2023-05-20T05:14:32.651Z,462.00
2023-05-20T05:15:32.838Z,460.00
2023-05-20T05:16:32.772Z,463.00
2023-05-20T05:17:32.700Z,462.00
2023-05-20T05:18:32.682Z,462.00
2023-05-20T05:19:32.635Z,462.00
2023-05-20T05:20:32.629Z,463.00
2023-05-20T05:21:32.607Z,462.00
2023-05-20T05:22:32.621Z,460.00
2023-05-20T05:23:32.627Z,459.00
2023-05-20T05:24:32.633Z,459.00
2023-05-20T05:25:32.767Z,461.00
2023-05-20T05:26:32.602Z,460.00
2023-05-20T05:27:32.610Z,460.00
2023-05-20T05:28:32.628Z,460.00
2023-05-20T05:29:32.616Z,460.00
2023-05-20T05:30:32.644Z,462.00
2023-05-20T05:31:32.658Z,461.00
2023-05-20T05:32:32.748Z,460.00
2023-05-20T05:33:32.847Z,458.00
2023-05-20T05:34:32.720Z,458.00
2023-05-20T05:35:32.956Z,458.00
2023-05-20T05:36:32.694Z,457.00
2023-05-20T05:37:32.704Z,460.00
2023-05-20T05:38:32.722Z,462.00
2023-05-20T05:39:32.716Z,463.00
2023-05-20T05:40:32.712Z,463.00
2023-05-20T05:41:32.734Z,465.00
2023-05-20T05:42:32.758Z,464.00
2023-05-20T05:43:32.831Z,466.00
2023-05-20T05:44:32.776Z,466.00
2023-05-20T05:45:33.040Z,468.00
2023-05-20T05:46:32.835Z,469.00
2023-05-20T05:47:33.010Z,470.00
2023-05-20T05:48:32.850Z,469.00
2023-05-20T05:49:32.828Z,465.00
2023-05-20T05:50:32.852Z,465.00
2023-05-20T05:51:32.849Z,466.00
2023-05-20T05:52:32.843Z,465.00
2023-05-20T05:53:32.859Z,466.00
2023-05-20T05:54:32.882Z,466.00
2023-05-20T05:55:32.993Z,469.00
2023-05-20T05:56:32.884Z,471.00
2023-05-20T05:57:32.885Z,471.00
2023-05-20T05:58:32.901Z,469.00
2023-05-20T05:59:32.910Z,468.00
2023-05-20T06:00:32.909Z,469.00
2023-05-20T06:01:32.943Z,470.00
2023-05-20T06:02:33.032Z,467.00
2023-05-20T06:03:33.056Z,466.00
2023-05-20T06:04:32.936Z,468.00
2023-05-20T06:05:33.128Z,467.00
2023-05-20T06:06:32.982Z,467.00
2023-05-20T06:07:33.020Z,467.00
2023-05-20T06:08:32.993Z,468.00
2023-05-20T06:09:33.017Z,465.00
2023-05-20T06:10:33.010Z,466.00
2023-05-20T06:11:33.023Z,469.00
2023-05-20T06:12:33.032Z,468.00
2023-05-20T06:13:33.082Z,468.00
2023-05-20T06:14:33.041Z,470.00
2023-05-20T06:15:33.353Z,469.00
2023-05-20T06:16:33.176Z,468.00
2023-05-20T06:17:33.130Z,467.00
2023-05-20T06:18:33.076Z,468.00
2023-05-20T06:19:33.245Z,468.00
2023-05-20T06:20:33.097Z,467.00
2023-05-20T06:21:33.106Z,468.00
2023-05-20T06:22:33.116Z,467.00
2023-05-20T06:23:33.140Z,467.00
2023-05-20T06:24:33.145Z,468.00
2023-05-20T06:25:33.381Z,470.00
2023-05-20T06:26:33.188Z,469.00
2023-05-20T06:27:33.177Z,471.00
2023-05-20T06:28:33.197Z,471.00
2023-05-20T06:29:33.187Z,474.00
2023-05-20T06:30:33.188Z,474.00
2023-05-20T06:31:33.209Z,472.00
2023-05-20T06:32:33.237Z,470.00
2023-05-20T06:33:33.429Z,469.00
2023-05-20T06:34:33.243Z,469.00
2023-05-20T06:35:33.416Z,468.00
2023-05-20T06:36:33.842Z,469.00
2023-05-20T06:37:33.277Z,469.00
2023-05-20T06:38:33.273Z,469.00
2023-05-20T06:39:33.265Z,467.00
2023-05-20T06:40:33.290Z,465.00
2023-05-20T06:41:33.290Z,465.00
2023-05-20T06:42:33.300Z,465.00
2023-05-20T06:43:33.311Z,463.00
2023-05-20T06:44:33.317Z,463.00
2023-05-20T06:45:33.533Z,461.00
2023-05-20T06:46:33.365Z,461.00
2023-05-20T06:47:33.393Z,463.00
2023-05-20T06:48:33.353Z,466.00
2023-05-20T06:49:33.368Z,468.00
2023-05-20T06:50:33.361Z,468.00
2023-05-20T06:51:33.375Z,468.00
2023-05-20T06:52:33.388Z,470.00
2023-05-20T06:53:33.437Z,469.00
2023-05-20T06:54:33.421Z,466.00
2023-05-20T06:55:33.731Z,467.00
2023-05-20T06:56:33.428Z,467.00
2023-05-20T06:57:33.435Z,467.00
2023-05-20T06:58:33.455Z,467.00
2023-05-20T06:59:33.433Z,467.00
2023-05-20T07:00:33.446Z,466.00
2023-05-20T07:01:33.463Z,467.00
2023-05-20T07:02:33.514Z,469.00
2023-05-20T07:03:33.506Z,470.00
2023-05-20T07:04:33.480Z,470.00
2023-05-20T07:05:33.672Z,470.00
2023-05-20T07:06:33.488Z,472.00
2023-05-20T07:07:33.511Z,472.00
2023-05-20T07:08:33.517Z,473.00
2023-05-20T07:09:33.550Z,473.00
2023-05-20T07:10:33.765Z,473.00
2023-05-20T07:11:33.524Z,473.00
2023-05-20T07:12:35.555Z,473.00
2023-05-20T07:13:33.531Z,473.00
2023-05-20T07:14:33.512Z,474.00
2023-05-20T07:15:33.781Z,474.00
2023-05-20T07:16:33.617Z,470.00
2023-05-20T07:17:33.563Z,469.00
2023-05-20T07:18:33.510Z,467.00
2023-05-20T07:19:33.506Z,469.00
2023-05-20T07:20:33.468Z,471.00
2023-05-20T07:21:33.470Z,470.00
2023-05-20T07:22:33.474Z,471.00
2023-05-20T07:23:33.495Z,471.00
2023-05-20T07:24:33.437Z,470.00
2023-05-20T07:25:33.757Z,470.00
2023-05-20T07:26:33.462Z,471.00
2023-05-20T07:27:33.437Z,467.00
2023-05-20T07:28:33.428Z,464.00
2023-05-20T07:29:33.419Z,465.00
2023-05-20T07:30:33.424Z,464.00
2023-05-20T07:31:33.446Z,464.00
2023-05-20T07:32:33.439Z,465.00
2023-05-20T07:33:33.389Z,467.00
2023-05-20T07:34:33.367Z,467.00
2023-05-20T07:35:33.672Z,470.00
2023-05-20T07:36:33.361Z,471.00
2023-05-20T07:37:33.358Z,472.00
2023-05-20T07:38:33.356Z,473.00
2023-05-20T07:39:33.325Z,471.00
2023-05-20T07:40:33.496Z,471.00
2023-05-20T07:41:33.321Z,472.00
2023-05-20T07:42:33.309Z,473.00
2023-05-20T07:43:33.315Z,473.00
2023-05-20T07:44:33.304Z,472.00
2023-05-20T07:45:33.518Z,470.00
2023-05-20T07:46:33.404Z,470.00
2023-05-20T07:47:33.337Z,469.00
2023-05-20T07:48:33.268Z,467.00
2023-05-20T07:49:33.260Z,466.00
2023-05-20T07:50:33.245Z,469.00
2023-05-20T07:51:33.250Z,469.00
2023-05-20T07:52:44.060Z,471.00
2023-05-20T07:53:34.258Z,471.00
2023-05-20T07:54:33.219Z,472.00
2023-05-20T07:55:33.444Z,473.00
2023-05-20T07:56:33.210Z,473.00
2023-05-20T07:57:33.214Z,473.00
2023-05-20T07:58:33.225Z,474.00
2023-05-20T07:59:33.183Z,474.00
2023-05-20T08:00:33.192Z,474.00
2023-05-20T08:01:33.186Z,473.00
2023-05-20T08:02:33.253Z,473.00
2023-05-20T08:03:33.309Z,471.00
2023-05-20T08:04:33.177Z,470.00
2023-05-20T08:05:33.407Z,474.00
2023-05-20T08:06:33.136Z,474.00
2023-05-20T08:07:33.145Z,473.00
2023-05-20T08:08:33.123Z,473.00
2023-05-20T08:09:33.128Z,475.00
2023-05-20T08:10:33.113Z,474.00
2023-05-20T08:11:33.112Z,474.00
2023-05-20T08:12:33.120Z,472.00
2023-05-20T08:13:33.093Z,475.00
2023-05-20T08:14:33.103Z,473.00
2023-05-20T08:15:33.450Z,473.00
2023-05-20T08:16:33.193Z,473.00
2023-05-20T08:17:33.217Z,476.00
2023-05-20T08:18:33.250Z,474.00
2023-05-20T08:19:33.305Z,473.00
2023-05-20T08:20:33.301Z,475.00
2023-05-20T08:21:33.339Z,473.00
2023-05-20T08:22:33.362Z,473.00
2023-05-20T08:23:36.390Z,473.00
2023-05-20T08:24:33.394Z,475.00
2023-05-20T08:25:33.621Z,470.00
2023-05-20T08:26:33.367Z,468.00
2023-05-20T08:27:33.362Z,473.00
2023-05-20T08:28:33.374Z,472.00
2023-05-20T08:29:33.345Z,472.00
2023-05-20T08:30:33.346Z,474.00
2023-05-20T08:31:33.436Z,476.00
2023-05-20T08:32:33.370Z,476.00
2023-05-20T08:33:33.323Z,477.00
2023-05-20T08:34:33.315Z,477.00
2023-05-20T08:35:33.563Z,472.00
2023-05-20T08:36:33.290Z,474.00
2023-05-20T08:37:33.317Z,472.00
2023-05-20T08:38:33.397Z,471.00
2023-05-20T08:39:33.433Z,471.00
2023-05-20T08:40:33.476Z,470.00
2023-05-20T08:41:33.537Z,469.00
2023-05-20T08:42:33.613Z,468.00
2023-05-20T08:43:33.658Z,467.00
2023-05-20T08:44:33.702Z,468.00
2023-05-20T08:45:33.985Z,467.00
2023-05-20T08:46:33.869Z,468.00
2023-05-20T08:47:33.926Z,468.00
2023-05-20T08:48:33.969Z,470.00
2023-05-20T08:49:34.019Z,470.00
2023-05-20T08:50:34.078Z,471.00
2023-05-20T08:51:34.136Z,473.00
2023-05-20T08:52:34.218Z,475.00
2023-05-20T08:53:34.273Z,474.00
2023-05-20T08:54:34.327Z,474.00
2023-05-20T08:55:34.519Z,476.00
2023-05-20T08:56:34.467Z,476.00
2023-05-20T08:57:34.488Z,476.00
2023-05-20T08:58:34.539Z,476.00
2023-05-20T08:59:34.592Z,475.00
2023-05-20T09:00:34.667Z,474.00
2023-05-20T09:01:34.756Z,473.00
2023-05-20T09:02:34.806Z,474.00
2023-05-20T09:03:34.832Z,473.00
2023-05-20T09:04:34.935Z,474.00
2023-05-20T09:05:35.184Z,474.00
2023-05-20T09:06:34.983Z,478.00
2023-05-20T09:07:35.050Z,477.00
2023-05-20T09:08:35.115Z,476.00
2023-05-20T09:09:35.159Z,476.00
2023-05-20T09:10:35.240Z,474.00
2023-05-20T09:11:35.286Z,473.00
2023-05-20T09:12:35.304Z,470.00
2023-05-20T09:13:35.374Z,471.00
2023-05-20T09:14:35.425Z,470.00
2023-05-20T09:15:35.811Z,469.00
2023-05-20T09:16:35.604Z,468.00
2023-05-20T09:17:35.616Z,467.00
2023-05-20T09:18:35.632Z,470.00
2023-05-20T09:19:35.738Z,469.00
2023-05-20T09:20:35.743Z,469.00
2023-05-20T09:21:35.793Z,467.00
2023-05-20T09:22:35.839Z,469.00
2023-05-20T09:23:35.877Z,470.00
2023-05-20T09:24:35.932Z,470.00
2023-05-20T09:25:36.208Z,471.00
2023-05-20T09:26:36.015Z,470.00
2023-05-20T09:27:36.050Z,470.00
2023-05-20T09:28:36.088Z,471.00
2023-05-20T09:29:36.127Z,471.00
2023-05-20T09:30:36.252Z,469.00
2023-05-20T09:31:36.231Z,466.00
2023-05-20T09:32:36.310Z,467.00
2023-05-20T09:33:36.298Z,469.00
2023-05-20T09:34:36.361Z,468.00
2023-05-20T09:35:36.396Z,471.00
2023-05-20T09:36:36.418Z,472.00
2023-05-20T09:37:36.446Z,472.00
2023-05-20T09:38:36.501Z,471.00
2023-05-20T09:39:36.541Z,472.00
2023-05-20T09:40:36.573Z,471.00
2023-05-20T09:41:36.619Z,470.00
2023-05-20T09:42:36.647Z,471.00
2023-05-20T09:43:36.711Z,469.00
2023-05-20T09:44:36.732Z,471.00
2023-05-20T09:45:36.968Z,472.00
2023-05-20T09:46:36.854Z,472.00
2023-05-20T09:47:36.851Z,473.00
2023-05-20T09:48:36.872Z,473.00
2023-05-20T09:49:36.902Z,472.00
2023-05-20T09:50:36.940Z,470.00
2023-05-20T09:51:36.982Z,471.00
2023-05-20T09:52:37.004Z,469.00
2023-05-20T09:53:37.053Z,466.00
2023-05-20T09:54:37.080Z,464.00
2023-05-20T09:55:37.331Z,464.00
2023-05-20T09:56:37.163Z,465.00
2023-05-20T09:57:37.199Z,466.00
2023-05-20T09:58:37.237Z,467.00
2023-05-20T09:59:37.279Z,467.00
2023-05-20T10:00:37.301Z,466.00
2023-05-20T10:01:37.382Z,466.00
2023-05-20T10:02:37.421Z,466.00
2023-05-20T10:03:37.609Z,465.00
2023-05-20T10:04:37.440Z,466.00
2023-05-20T10:05:37.455Z,466.00
2023-05-20T10:06:37.512Z,466.00
2023-05-20T10:07:42.081Z,463.00
2023-05-20T10:08:38.524Z,460.00
2023-05-20T10:09:37.522Z,462.00
2023-05-20T10:10:37.509Z,461.00
2023-05-20T10:11:37.508Z,459.00
2023-05-20T10:12:37.518Z,459.00
2023-05-20T10:13:37.489Z,458.00
2023-05-20T10:14:38.308Z,460.00
2023-05-20T10:15:37.565Z,462.00
2023-05-20T10:16:37.474Z,463.00
2023-05-20T10:17:37.467Z,465.00
2023-05-20T10:18:37.446Z,465.00
2023-05-20T10:19:37.444Z,465.00
2023-05-20T10:20:37.429Z,468.00
2023-05-20T10:21:37.448Z,466.00
2023-05-20T10:22:37.407Z,466.00
2023-05-20T10:23:37.454Z,466.00
2023-05-20T10:24:37.429Z,467.00
2023-05-20T10:25:37.571Z,466.00
2023-05-20T10:26:37.475Z,460.00
2023-05-20T10:27:37.522Z,459.00
2023-05-20T10:28:37.548Z,459.00
2023-05-20T10:29:37.544Z,456.00
2023-05-20T10:30:37.655Z,459.00
2023-05-20T10:31:37.562Z,459.00
2023-05-20T10:32:37.650Z,460.00
2023-05-20T10:33:37.600Z,458.00
2023-05-20T10:34:37.635Z,459.00
2023-05-20T10:35:37.632Z,461.00
2023-05-20T10:36:37.639Z,461.00
2023-05-20T10:37:37.690Z,459.00
2023-05-20T10:38:37.673Z,458.00
2023-05-20T10:39:37.706Z,457.00
2023-05-20T10:40:37.696Z,458.00
2023-05-20T10:41:37.705Z,459.00
2023-05-20T10:42:37.759Z,460.00
2023-05-20T10:43:37.746Z,458.00
2023-05-20T10:44:37.720Z,458.00
2023-05-20T10:45:37.748Z,456.00
2023-05-20T10:46:51.515Z,457.00
2023-05-20T10:47:38.825Z,457.00
2023-05-20T10:48:37.868Z,459.00
2023-05-20T10:49:37.718Z,462.00
2023-05-20T10:50:37.720Z,462.00
2023-05-20T10:51:37.756Z,463.00
2023-05-20T10:52:37.709Z,465.00
2023-05-20T10:53:37.721Z,467.00
2023-05-20T10:54:37.714Z,465.00
2023-05-20T10:55:37.690Z,462.00
2023-05-20T10:56:37.681Z,462.00
2023-05-20T10:57:37.693Z,460.00
2023-05-20T10:58:37.671Z,459.00
2023-05-20T10:59:37.665Z,460.00
2023-05-20T11:00:38.100Z,460.00
2023-05-20T11:01:37.848Z,459.00
2023-05-20T11:02:37.720Z,458.00
2023-05-20T11:03:37.805Z,458.00
2023-05-20T11:04:37.628Z,458.00
2023-05-20T11:05:37.616Z,459.00
2023-05-20T11:06:37.614Z,461.00
2023-05-20T11:07:37.642Z,461.00
2023-05-20T11:08:37.693Z,462.00
2023-05-20T11:09:37.617Z,461.00
2023-05-20T11:10:37.609Z,461.00
2023-05-20T11:11:37.582Z,459.00
2023-05-20T11:12:37.700Z,459.00
2023-05-20T11:13:37.653Z,460.00
2023-05-20T11:14:37.666Z,463.00
2023-05-20T11:15:37.668Z,460.00
2023-05-20T11:16:37.754Z,460.00
2023-05-20T11:17:37.743Z,459.00
2023-05-20T11:18:37.774Z,458.00
2023-05-20T11:19:37.751Z,457.00
2023-05-20T11:20:37.772Z,455.00
2023-05-20T11:21:37.769Z,456.00
2023-05-20T11:22:37.795Z,456.00
2023-05-20T11:23:40.494Z,456.00
2023-05-20T11:24:37.807Z,457.00
2023-05-20T11:25:37.800Z,457.00
2023-05-20T11:26:37.780Z,459.00
2023-05-20T11:27:37.778Z,459.00
2023-05-20T11:28:37.799Z,461.00
2023-05-20T11:29:37.802Z,457.00
2023-05-20T11:30:37.801Z,457.00
2023-05-20T11:31:37.766Z,458.00
2023-05-20T11:32:37.791Z,457.00
2023-05-20T11:33:37.740Z,459.00
2023-05-20T11:34:37.773Z,461.00
2023-05-20T11:35:37.722Z,464.00
2023-05-20T11:36:37.716Z,465.00
2023-05-20T11:37:37.732Z,465.00
2023-05-20T11:38:37.699Z,465.00
2023-05-20T11:39:37.748Z,466.00
2023-05-20T11:40:49.681Z,468.00
2023-05-20T11:41:38.682Z,468.00
2023-05-20T11:42:37.714Z,467.00
2023-05-20T11:43:37.669Z,469.00
2023-05-20T11:44:37.669Z,472.00
2023-05-20T11:45:37.654Z,470.00
2023-05-20T11:46:37.739Z,467.00
2023-05-20T11:47:37.654Z,465.00
2023-05-20T11:48:37.624Z,464.00
2023-05-20T11:49:37.620Z,464.00
2023-05-20T11:50:37.614Z,462.00
2023-05-20T11:51:37.625Z,460.00
2023-05-20T11:52:37.594Z,461.00
2023-05-20T11:53:37.592Z,460.00
2023-05-20T11:54:37.598Z,463.00
2023-05-20T11:55:37.579Z,465.00
2023-05-20T11:56:37.567Z,462.00
2023-05-20T11:57:37.564Z,463.00
2023-05-20T11:58:37.550Z,463.00
2023-05-20T11:59:37.564Z,462.00
2023-05-20T12:00:49.639Z,464.00
2023-05-20T12:01:38.557Z,465.00
2023-05-20T12:02:37.600Z,465.00
2023-05-20T12:03:37.638Z,462.00
2023-05-20T12:04:37.536Z,462.00
2023-05-20T12:05:37.512Z,460.00
2023-05-20T12:06:37.534Z,459.00
2023-05-20T12:07:37.500Z,459.00
2023-05-20T12:08:37.477Z,459.00
2023-05-20T12:09:37.487Z,458.00
2023-05-20T12:10:37.624Z,456.00
2023-05-20T12:11:37.465Z,457.00
2023-05-20T12:12:37.463Z,457.00
2023-05-20T12:13:37.446Z,458.00
2023-05-20T12:14:37.482Z,459.00
2023-05-20T12:15:37.438Z,459.00
2023-05-20T12:16:37.519Z,458.00
2023-05-20T12:17:37.441Z,460.00
2023-05-20T12:18:37.410Z,460.00
2023-05-20T12:19:38.444Z,459.00
2023-05-20T12:20:37.893Z,458.00
2023-05-20T12:21:37.411Z,458.00
2023-05-20T12:22:37.432Z,461.00
2023-05-20T12:23:37.457Z,460.00
2023-05-20T12:24:37.446Z,459.00
2023-05-20T12:25:37.462Z,464.00
2023-05-20T12:26:37.503Z,465.00
2023-05-20T12:27:37.479Z,463.00
2023-05-20T12:28:37.478Z,462.00